Time;durP1;ratioP1;P1;durP2;ratioP2;P2;SDS_P1;SDS_P2;PMS_P1;PMS_P2;Temp;Humidity;BMP_temperature;BMP_pressure;BME280_temperature;BME280_humidity;BME280_pressure;Samples;Min_cycle;Max_cycle;Signal;HPM_P1;HPM_P2
2021/08/02 00:02:36;;;;;;;7.80;1.90;;;;;;;27.49;44.33;100630.06;5110877;27;69441;-36
2021/08/02 00:05:08;;;;;;;16.88;1.80;;;;;;;27.79;47.80;100662.06;5114049;27;65535;-36
2021/08/02 00:07:40;;;;;;;32.95;2.50;;;;;;;27.93;48.65;100674.56;5110834;27;70429;-38
2021/08/02 00:10:14;;;;;;;16.40;2.85;;;;;;;28.15;54.96;100688.69;5110704;27;66041;-37
2021/08/02 00:12:55;;;;;;;13.60;3.00;;;;;;;28.39;57.71;100699.88;5107607;27;70281;-37
2021/08/02 00:15:26;;;;;;;17.25;3.80;;;;;;;28.52;59.05;100687.25;5107055;27;65082;-38
2021/08/02 00:17:57;;;;;;;10.47;2.70;;;;;;;28.73;59.23;100701.56;5117117;27;69537;-38
2021/08/02 00:20:32;;;;;;;15.40;3.50;;;;;;;28.88;60.69;100706.72;5107439;27;66171;-40
2021/08/02 00:23:06;;;;;;;9.13;3.20;;;;;;;28.99;60.22;100700.66;5108464;27;70124;-38
2021/08/02 00:25:38;;;;;;;11.23;3.40;;;;;;;29.05;61.28;100688.22;5100788;27;65586;-38
2021/08/02 00:28:09;;;;;;;11.35;4.30;;;;;;;29.28;63.00;100704.78;5086848;27;70426;-39
2021/08/02 00:30:39;;;;;;;7.65;3.85;;;;;;;29.43;64.21;100707.19;5107192;27;66745;-40
2021/08/02 00:33:10;;;;;;;7.93;4.13;;;;;;;29.53;64.08;100704.88;5115117;27;70212;-41
2021/08/02 00:35:52;;;;;;;7.70;3.83;;;;;;;29.66;65.34;100701.28;5092319;27;65894;-39
2021/08/02 00:38:31;;;;;;;15.02;4.40;;;;;;;29.67;65.62;100686.75;5112989;27;70290;-37
2021/08/02 00:41:07;;;;;;;8.93;2.97;;;;;;;29.89;64.66;100706.13;5108435;27;65595;-40
2021/08/02 00:44:00;;;;;;;11.50;4.00;;;;;;;29.97;65.16;100718.56;5106517;27;70154;-38
2021/08/02 00:46:38;;;;;;;16.75;3.92;;;;;;;30.02;66.06;100705.22;5113207;27;65303;-38
2021/08/02 00:49:12;;;;;;;10.27;3.85;;;;;;;30.12;66.50;100718.28;5118479;27;70048;-38
2021/08/02 00:51:49;;;;;;;8.93;3.80;;;;;;;30.14;66.27;100703.47;5118380;27;65306;-38
2021/08/02 00:54:23;;;;;;;7.38;3.30;;;;;;;30.07;65.86;100686.47;5110502;27;69763;-39
2021/08/02 00:56:57;;;;;;;5.90;3.25;;;;;;;30.14;65.74;100692.66;5098532;27;67576;-39
2021/08/02 00:59:31;;;;;;;4.60;3.13;;;;;;;30.41;66.29;100735.78;5095788;27;70348;-38
2021/08/02 01:02:01;;;;;;;4.40;2.80;;;;;;;30.45;66.51;100739.69;5116797;27;66428;-39
2021/08/02 01:04:37;;;;;;;6.57;3.17;;;;;;;30.49;65.95;100740.91;5114899;27;70188;-38
2021/08/02 01:07:11;;;;;;;3.70;2.63;;;;;;;30.56;67.01;100744.38;5118718;27;66009;-38
2021/08/02 01:09:46;;;;;;;5.30;2.20;;;;;;;30.44;64.90;100719.09;5115168;27;69130;-39
2021/08/02 01:12:21;;;;;;;4.10;2.67;;;;;;;30.66;65.64;100744.72;5113758;27;66390;-38
2021/08/02 01:14:54;;;;;;;3.15;2.00;;;;;;;30.42;65.45;100704.94;5114390;27;69158;-38
2021/08/02 01:17:28;;;;;;;5.20;2.58;;;;;;;30.73;64.94;100763.63;5112447;27;66244;-38
2021/08/02 01:20:07;;;;;;;6.35;3.08;;;;;;;30.79;66.16;100770.03;5109836;27;70210;-38
2021/08/02 01:22:40;;;;;;;5.82;2.67;;;;;;;30.82;66.34;100777.72;5115569;27;66122;-38
2021/08/02 01:25:34;;;;;;;6.97;3.35;;;;;;;30.84;66.52;100778.31;5112239;27;69435;-40
2021/08/02 01:28:13;;;;;;;7.67;3.60;;;;;;;30.88;66.47;100780.38;5104289;27;66236;-38
2021/08/02 01:30:52;;;;;;;6.68;3.40;;;;;;;30.76;65.16;100754.19;5115124;27;69231;-38
2021/08/02 01:33:32;;;;;;;8.00;3.05;;;;;;;30.95;65.45;100774.88;5108204;27;66207;-40
2021/08/02 01:36:08;;;;;;;8.57;3.17;;;;;;;30.95;65.66;100766.75;5109469;27;70676;-37
2021/08/02 01:38:46;;;;;;;8.32;3.10;;;;;;;30.95;65.45;100780.28;5107208;27;65724;-38
2021/08/02 01:41:20;;;;;;;11.95;2.80;;;;;;;30.93;62.51;100788.66;5107516;27;70579;-35
2021/08/02 01:43:53;;;;;;;12.90;2.42;;;;;;;30.80;60.93;100780.66;5108428;27;66394;-36
2021/08/02 01:46:38;;;;;;;1.95;1.50;;;;;;;30.55;60.02;100736.50;5104039;27;69244;-37
2021/08/02 01:49:22;;;;;;;2.83;1.38;;;;;;;30.64;57.84;100784.72;5116575;27;65831;-37
2021/08/02 01:51:57;;;;;;;13.00;1.33;;;;;;;30.39;57.85;100756.81;5115713;27;70484;-35
2021/08/02 01:55:01;;;;;;;4.05;1.00;;;;;;;30.48;56.49;100785.28;5131224;27;65535;-36
2021/08/02 01:57:42;;;;;;;1.80;0.70;;;;;;;30.38;55.39;100785.75;5112267;27;70188;-36
2021/08/02 02:00:30;;;;;;;1.55;0.88;;;;;;;30.27;54.46;100799.97;5111899;27;66551;-35
2021/08/02 02:03:18;;;;;;;1.42;0.63;;;;;;;29.92;52.67;100749.00;5114981;27;70261;-35
2021/08/02 02:06:03;;;;;;;0.95;0.50;;;;;;;29.88;52.63;100747.75;5114920;27;65976;-36
2021/08/02 02:08:41;;;;;;;1.42;0.70;;;;;;;30.01;51.83;100777.44;5112955;27;70237;-35
2021/08/02 02:11:27;;;;;;;;;;;;;;;29.65;51.85;100769.91;5112246;27;66578;-37
2021/08/02 02:14:08;;;;;;;1.42;0.57;;;;;;;29.87;52.64;100788.53;5127781;27;70723;-38
2021/08/02 02:16:46;;;;;;;4.95;0.60;;;;;;;29.87;51.75;100773.16;5103171;27;66584;-38
2021/08/02 02:19:22;;;;;;;1.48;0.70;;;;;;;29.84;51.74;100774.41;5098508;27;70115;-37
2021/08/02 02:21:58;;;;;;;3.05;0.70;;;;;;;29.78;51.27;100775.28;5112185;27;66013;-37
2021/08/02 02:24:37;;;;;;;1.60;0.88;;;;;;;29.77;50.54;100780.88;5097148;27;71053;-41
2021/08/02 02:27:12;;;;;;;5.68;0.70;;;;;;;29.75;50.10;100775.69;5112534;27;65648;-38
2021/08/02 02:29:50;;;;;;;6.18;0.63;;;;;;;29.75;50.94;100772.16;5115800;27;70642;-37
2021/08/02 02:32:20;;;;;;;9.23;0.73;;;;;;;29.71;50.10;100765.53;5113531;27;66181;-38
2021/08/02 02:34:52;;;;;;;7.82;0.88;;;;;;;29.71;50.54;100760.94;5102191;27;69946;-38
2021/08/02 02:37:25;;;;;;;1.95;0.80;;;;;;;29.71;49.29;100771.75;5111064;27;66336;-37
2021/08/02 02:40:00;;;;;;;3.40;1.35;;;;;;;29.67;55.29;100762.44;5106515;27;70798;-40
2021/08/02 02:42:32;;;;;;;6.25;1.20;;;;;;;29.75;53.71;100775.69;5112597;27;66451;-38
2021/08/02 02:45:09;;;;;;;4.82;0.90;;;;;;;29.77;54.05;100762.78;5109522;27;69237;-38
2021/08/02 02:47:42;;;;;;;8.77;0.80;;;;;;;29.77;53.04;100767.38;5096668;27;66415;-38
2021/08/02 02:50:14;;;;;;;5.90;1.33;;;;;;;29.81;52.62;100761.31;5115584;27;70138;-37
2021/08/02 02:52:46;;;;;;;2.13;1.08;;;;;;;29.83;51.24;100772.72;5094405;27;66106;-37
2021/08/02 02:55:17;;;;;;;4.00;0.98;;;;;;;29.80;50.88;100767.75;5113476;27;69945;-36
2021/08/02 02:57:50;;;;;;;5.82;1.05;;;;;;;29.80;50.41;100773.16;5110667;27;66226;-36
2021/08/02 03:00:21;;;;;;;2.53;0.93;;;;;;;29.82;51.02;100760.25;5113072;27;69375;-38
2021/08/02 03:02:56;;;;;;;2.20;0.70;;;;;;;29.84;50.76;100750.06;5114328;27;65570;-36
2021/08/02 03:05:30;;;;;;;4.18;0.55;;;;;;;29.65;50.38;100732.06;5105324;27;69638;-37
2021/08/02 03:08:02;;;;;;;1.95;0.50;;;;;;;29.82;49.64;100751.31;5116581;27;65598;-37
2021/08/02 03:10:35;;;;;;;1.23;0.60;;;;;;;29.80;49.18;100756.94;5081206;27;69965;-36
2021/08/02 03:13:08;;;;;;;1.90;0.80;;;;;;;29.78;49.37;100750.94;5110796;27;65425;-37
2021/08/02 03:15:40;;;;;;;1.33;0.70;;;;;;;29.77;49.72;100751.97;5114040;27;70909;-36
2021/08/02 03:18:10;;;;;;;12.35;0.98;;;;;;;29.78;49.46;100737.44;5111079;27;65127;-35
2021/08/02 03:20:41;;;;;;;1.60;0.60;;;;;;;29.77;48.81;100733.03;5110629;27;69984;-34
2021/08/02 03:23:16;;;;;;;2.85;0.60;;;;;;;29.78;48.20;100726.59;5115738;27;66394;-34
2021/08/02 03:26:11;;;;;;;3.55;0.70;;;;;;;29.80;48.36;100729.91;5114974;27;70219;-34
2021/08/02 03:29:09;;;;;;;5.60;0.60;;;;;;;29.71;47.83;100715.00;5114291;27;66054;-34
2021/08/02 03:31:45;;;;;;;9.30;0.50;;;;;;;29.64;48.04;100675.50;5119883;27;69634;-35
2021/08/02 03:34:22;;;;;;;5.15;0.95;;;;;;;29.57;48.20;100670.13;5115030;27;66107;-36
2021/08/02 03:36:54;;;;;;;3.28;0.73;;;;;;;29.81;48.14;100709.94;5113154;27;70874;-38
2021/08/02 03:39:28;;;;;;;10.00;0.68;;;;;;;29.84;48.35;100701.41;5115993;27;65416;-36
2021/08/02 03:41:59;;;;;;;2.45;0.52;;;;;;;29.81;47.91;100696.44;5114192;27;71081;-34
2021/08/02 03:44:31;;;;;;;1.23;0.50;;;;;;;29.88;47.43;100707.19;5112710;27;65878;-36
2021/08/02 03:47:03;;;;;;;1.60;0.70;;;;;;;29.89;48.22;100706.13;5099868;27;69820;-35
2021/08/02 03:49:34;;;;;;;1.52;0.88;;;;;;;29.94;49.75;100702.78;5112394;27;65304;-34
2021/08/02 03:52:05;;;;;;;5.20;1.02;;;;;;;29.95;49.32;100689.06;5110288;27;70001;-34
2021/08/02 03:54:35;;;;;;;2.78;0.63;;;;;;;30.03;49.28;100701.47;5114761;27;66174;-33
2021/08/02 03:57:06;;;;;;;3.00;0.88;;;;;;;30.00;48.70;100672.16;5115840;27;70470;-34
2021/08/02 03:59:37;;;;;;;2.73;0.90;;;;;;;30.03;48.20;100685.25;5112982;27;66066;-36
2021/08/02 04:02:08;;;;;;;1.92;0.90;;;;;;;30.03;47.30;100675.28;5077111;27;70110;-33
2021/08/02 04:04:39;;;;;;;4.78;0.75;;;;;;;30.06;47.56;100673.97;5112504;27;65352;-34
2021/08/02 04:07:09;;;;;;;2.97;1.00;;;;;;;30.05;47.59;100677.75;5075741;27;70272;-33
2021/08/02 04:09:40;;;;;;;3.33;1.38;;;;;;;30.06;47.13;100668.56;5112658;27;66106;-33
2021/08/02 04:12:10;;;;;;;4.75;1.05;;;;;;;30.08;47.25;100666.47;5115265;27;70476;-35
2021/08/02 04:14:40;;;;;;;4.65;2.65;;;;;;;30.03;46.58;100658.19;5113712;27;65593;-34
2021/08/02 04:17:13;;;;;;;5.68;2.72;;;;;;;30.08;47.03;100642.13;5106902;27;69280;-35
2021/08/02 04:19:43;;;;;;;11.75;3.45;;;;;;;30.08;47.43;100644.84;5109047;27;66425;-34
2021/08/02 04:22:13;;;;;;;5.18;4.18;;;;;;;30.14;47.09;100649.34;5102273;27;69670;-34
2021/08/02 04:24:43;;;;;;;5.55;5.03;;;;;;;29.94;47.38;100605.44;5098278;27;66696;-35
2021/08/02 04:27:14;;;;;;;4.70;3.72;;;;;;;30.19;47.04;100646.81;5109970;27;69321;-34
2021/08/02 04:29:44;;;;;;;4.35;3.95;;;;;;;30.20;46.55;100643.09;5105423;27;65455;-33
2021/08/02 04:32:15;;;;;;;6.97;3.13;;;;;;;30.22;46.03;100645.59;5113957;27;69256;-33
2021/08/02 04:34:45;;;;;;;4.80;2.85;;;;;;;30.24;46.37;100643.50;5111647;27;66004;-34
2021/08/02 04:37:15;;;;;;;2.55;2.35;;;;;;;30.23;45.33;100628.31;5104438;27;70633;-35
2021/08/02 04:39:46;;;;;;;2.53;2.33;;;;;;;30.21;45.67;100625.78;5109654;27;65899;-35
2021/08/02 04:42:16;;;;;;;2.28;2.10;;;;;;;30.14;45.88;100613.38;5114623;27;70072;-34
2021/08/02 04:44:46;;;;;;;3.25;1.88;;;;;;;30.21;45.54;100623.09;5114917;27;65441;-35
2021/08/02 04:47:17;;;;;;;1.60;1.50;;;;;;;30.17;45.52;100616.47;5113452;27;69967;-34
2021/08/02 04:49:47;;;;;;;1.60;1.50;;;;;;;30.24;46.15;100625.38;5114401;27;65575;-34
2021/08/02 04:52:17;;;;;;;2.60;1.20;;;;;;;30.06;45.80;100593.69;5114408;27;70067;-34
2021/08/02 04:54:47;;;;;;;3.35;1.30;;;;;;;30.25;46.00;100629.72;5105117;27;65302;-34
2021/08/02 04:57:19;;;;;;;1.93;0.90;;;;;;;30.24;45.49;100614.56;5093907;27;70412;-33
2021/08/02 04:59:49;;;;;;;1.20;0.80;;;;;;;30.30;45.53;100623.66;5115565;27;65616;-33
2021/08/02 05:02:20;;;;;;;1.27;0.80;;;;;;;30.31;45.17;100625.31;5100690;27;69034;-33
2021/08/02 05:04:50;;;;;;;1.63;0.95;;;;;;;30.31;48.92;100616.38;5105313;27;66478;-34
2021/08/02 05:07:21;;;;;;;3.78;1.33;;;;;;;30.25;49.27;100602.66;5112947;27;70062;-35
2021/08/02 05:09:51;;;;;;;7.03;1.23;;;;;;;30.37;48.95;100607.34;5114890;27;66191;-36
2021/08/02 05:12:22;;;;;;;3.53;1.20;;;;;;;30.42;49.11;100608.38;5105907;27;70239;-35
2021/08/02 05:14:52;;;;;;;4.10;2.10;;;;;;;30.46;54.83;100603.31;5104819;27;65657;-36
2021/08/02 05:17:23;;;;;;;8.48;2.45;;;;;;;30.50;55.41;100607.22;5107309;27;70181;-35
2021/08/02 05:19:53;;;;;;;5.78;2.30;;;;;;;30.63;55.92;100607.09;5111047;27;66362;-36
2021/08/02 05:22:23;;;;;;;9.48;2.10;;;;;;;30.72;56.33;100600.31;5110090;27;69897;-34
2021/08/02 05:24:53;;;;;;;8.23;2.15;;;;;;;30.61;54.22;100573.16;5108871;27;66019;-35
2021/08/02 05:27:23;;;;;;;6.10;1.50;;;;;;;30.77;52.77;100582.56;5108770;27;69965;-37
2021/08/02 05:29:54;;;;;;;2.42;1.40;;;;;;;30.75;52.42;100579.25;5109345;27;65622;-38
2021/08/02 05:32:24;;;;;;;1.88;1.20;;;;;;;30.77;51.70;100564.44;5108083;27;69558;-35
2021/08/02 05:34:54;;;;;;;1.95;1.00;;;;;;;30.71;50.00;100558.06;5115446;27;65399;-34
2021/08/02 05:37:24;;;;;;;1.67;0.80;;;;;;;30.75;50.00;100553.00;5109530;27;69510;-36
2021/08/02 05:39:54;;;;;;;5.88;0.90;;;;;;;30.73;49.68;100555.94;5115109;27;65743;-35
2021/08/02 05:42:24;;;;;;;3.08;0.60;;;;;;;30.72;47.96;100554.28;5112649;27;70281;-37
2021/08/02 05:44:54;;;;;;;12.27;0.80;;;;;;;30.73;48.23;100544.31;5114804;27;65650;-38
2021/08/02 05:47:25;;;;;;;7.93;1.02;;;;;;;30.72;48.37;100543.44;5112924;27;70019;-39
2021/08/02 05:49:55;;;;;;;5.28;0.90;;;;;;;30.66;49.54;100522.72;5117732;27;64898;-36
2021/08/02 05:52:26;;;;;;;8.23;1.00;;;;;;;30.75;49.51;100541.34;5111659;27;69040;-36
2021/08/02 05:54:56;;;;;;;6.53;1.02;;;;;;;30.77;49.23;100533.84;5117902;27;66003;-36
2021/08/02 05:57:26;;;;;;;5.68;1.00;;;;;;;30.77;49.35;100528.41;5118922;27;70137;-37
2021/08/02 05:59:57;;;;;;;12.98;1.13;;;;;;;30.71;47.96;100514.72;5114320;27;66886;-38
2021/08/02 06:02:28;;;;;;;6.35;0.90;;;;;;;30.77;47.71;100533.84;5116146;27;69237;-37
2021/08/02 06:04:59;;;;;;;3.15;0.95;;;;;;;30.78;47.80;100535.47;5117059;27;66736;-36
2021/08/02 06:07:29;;;;;;;5.63;0.90;;;;;;;30.77;46.43;100534.66;5117966;27;70854;-37
2021/08/02 06:10:00;;;;;;;1.33;0.52;;;;;;;30.80;46.89;100533.41;5115854;27;66331;-36
2021/08/02 06:12:31;;;;;;;7.18;0.60;;;;;;;30.75;45.85;100525.09;5099341;27;69231;-36
2021/08/02 06:15:01;;;;;;;0.65;0.50;;;;;;;30.77;45.54;100528.41;5114873;27;65319;-36
2021/08/02 06:17:32;;;;;;;0.70;0.60;;;;;;;30.75;45.28;100516.97;5113944;27;70525;-37
2021/08/02 06:20:06;;;;;;;1.02;0.57;;;;;;;30.73;44.93;100518.03;5119472;27;66175;-36
2021/08/02 06:22:37;;;;;;;3.45;0.50;;;;;;;30.77;46.02;100513.00;5114550;27;69150;-35
2021/08/02 06:25:08;;;;;;;3.38;0.90;;;;;;;30.85;46.40;100509.19;5113661;27;65117;-35
2021/08/02 06:27:39;;;;;;;2.17;0.90;;;;;;;30.90;45.44;100501.19;5115370;27;70087;-42
2021/08/02 06:30:11;;;;;;;1.33;0.50;;;;;;;30.83;44.82;100495.03;5114262;27;65140;-35
2021/08/02 06:32:42;;;;;;;1.17;0.60;;;;;;;30.90;45.83;100510.16;5116530;27;69809;-34
2021/08/02 06:35:13;;;;;;;1.50;0.90;;;;;;;30.93;45.39;100506.16;5112881;27;66851;-34
2021/08/02 06:37:43;;;;;;;1.98;0.60;;;;;;;30.97;45.12;100509.22;5111021;27;70093;-34
2021/08/02 06:40:15;;;;;;;0.85;0.60;;;;;;;30.99;44.87;100497.09;5114529;27;66649;-34
2021/08/02 06:42:47;;;;;;;5.32;0.60;;;;;;;30.99;44.15;100494.38;5112319;27;69289;-35
2021/08/02 06:45:17;;;;;;;1.92;0.70;;;;;;;31.03;44.96;100484.72;5111374;27;65809;-35
2021/08/02 06:47:47;;;;;;;1.38;0.70;;;;;;;31.04;43.60;100481.00;5114895;27;70216;-35
2021/08/02 06:50:18;;;;;;;1.10;0.70;;;;;;;30.99;43.17;100472.72;5113390;27;66246;-39
2021/08/02 06:52:52;;;;;;;2.85;0.65;;;;;;;31.09;44.42;100483.84;5111550;27;69889;-37
2021/08/02 06:55:22;;;;;;;1.02;0.55;;;;;;;31.09;44.14;100473.00;5115955;27;66509;-37
2021/08/02 06:57:52;;;;;;;1.15;0.60;;;;;;;31.16;43.69;100473.72;5115483;27;69780;-36
2021/08/02 07:00:24;;;;;;;3.23;0.60;;;;;;;31.19;43.77;100466.19;5114747;27;67024;-34
2021/08/02 07:02:57;;;;;;;0.90;0.73;;;;;;;31.21;43.66;100458.66;5116491;27;70472;-35
2021/08/02 07:05:28;;;;;;;0.98;0.50;;;;;;;31.20;43.78;100462.41;5115660;27;65665;-38
2021/08/02 07:08:00;;;;;;;1.10;0.40;;;;;;;31.22;43.81;100449.44;5099864;27;69131;-37
2021/08/02 07:10:33;;;;;;;0.88;0.50;;;;;;;31.24;43.11;100447.34;5113573;27;65363;-40
2021/08/02 07:13:09;;;;;;;0.75;0.40;;;;;;;31.23;43.24;100446.53;5114229;27;70975;-34
2021/08/02 07:15:39;;;;;;;0.88;0.60;;;;;;;31.27;43.18;100453.13;5116541;27;65635;-35
2021/08/02 07:18:10;;;;;;;1.00;0.50;;;;;;;31.27;42.80;100452.28;5111386;27;69419;-37
2021/08/02 07:20:40;;;;;;;1.20;0.40;;;;;;;31.26;42.55;100456.03;5114934;27;66338;-34
2021/08/02 07:23:11;;;;;;;0.90;0.55;;;;;;;31.28;42.69;100454.75;5117822;27;69802;-38
2021/08/02 07:25:43;;;;;;;0.70;0.40;;;;;;;31.30;42.58;100458.06;5106810;27;65906;-36
2021/08/02 07:28:14;;;;;;;3.35;0.50;;;;;;;31.32;43.04;100457.84;5115204;27;70099;-39
2021/08/02 07:30:44;;;;;;;0.98;0.60;;;;;;;31.33;42.76;100463.00;5114707;27;66473;-35
2021/08/02 07:33:16;;;;;;;1.05;0.50;;;;;;;31.35;42.05;100476.34;5096885;27;69607;-34
2021/08/02 07:35:47;;;;;;;2.70;0.55;;;;;;;31.34;42.21;100469.25;5113912;27;66297;-35
2021/08/02 07:38:17;;;;;;;0.95;0.40;;;;;;;31.35;41.86;100468.22;5094768;27;70162;-34
2021/08/02 07:40:48;;;;;;;0.73;0.45;;;;;;;31.37;41.87;100468.81;5114875;27;66232;-37
2021/08/02 07:43:18;;;;;;;1.13;0.50;;;;;;;31.32;41.94;100471.41;5115476;27;69956;-37
2021/08/02 07:45:49;;;;;;;0.75;0.50;;;;;;;31.37;41.58;100476.94;5115443;27;65618;-34
2021/08/02 07:48:21;;;;;;;0.60;0.40;;;;;;;31.35;41.22;100479.88;5113764;27;70667;-34
2021/08/02 07:50:51;;;;;;;3.28;0.47;;;;;;;31.37;41.93;100474.25;5113895;27;63956;-34
2021/08/02 07:53:21;;;;;;;0.75;0.32;;;;;;;31.38;42.31;100470.50;5114353;27;69637;-36
2021/08/02 07:55:51;;;;;;;0.75;0.45;;;;;;;31.37;41.92;100452.56;5114815;27;66193;-36
2021/08/02 07:58:24;;;;;;;0.90;0.52;;;;;;;31.36;41.65;100461.75;5115984;27;70380;-34
2021/08/02 08:00:54;;;;;;;1.25;0.60;;;;;;;31.39;41.68;100445.84;5113835;27;65756;-34
2021/08/02 08:03:27;;;;;;;0.73;0.57;;;;;;;31.38;41.16;100438.78;5114197;27;69496;-34
2021/08/02 08:05:58;;;;;;;1.38;0.60;;;;;;;31.39;41.60;100445.03;5111365;27;66782;-34
2021/08/02 08:08:29;;;;;;;3.08;0.80;;;;;;;31.36;41.73;100437.38;5114559;27;69380;-33
2021/08/02 08:10:59;;;;;;;0.90;0.52;;;;;;;31.40;41.56;100457.53;5112667;27;66086;-34
2021/08/02 08:13:30;;;;;;;0.95;0.63;;;;;;;31.37;41.58;100447.97;5115147;27;69504;-37
2021/08/02 08:16:04;;;;;;;0.80;0.63;;;;;;;31.42;41.54;100460.00;5115800;27;43181;-35
2021/08/02 08:18:36;;;;;;;1.10;0.90;;;;;;;31.42;42.06;100466.22;5116028;27;69824;-33
2021/08/02 08:21:06;;;;;;;0.93;0.80;;;;;;;31.14;41.57;100424.34;5113479;27;65489;-34
2021/08/02 08:23:36;;;;;;;1.45;1.10;;;;;;;31.40;42.04;100473.78;5115825;27;70609;-35
2021/08/02 08:26:06;;;;;;;2.72;0.70;;;;;;;31.41;41.79;100475.44;5116867;27;65349;-33
2021/08/02 08:28:36;;;;;;;2.03;0.90;;;;;;;31.41;41.74;100464.59;5113039;27;70083;-33
2021/08/02 08:31:07;;;;;;;2.10;1.10;;;;;;;31.35;41.79;100457.38;5110824;27;66897;-37
2021/08/02 08:33:37;;;;;;;1.27;1.00;;;;;;;31.44;42.23;100460.59;5100326;27;70987;-33
2021/08/02 08:36:11;;;;;;;2.80;1.20;;;;;;;31.38;41.90;100457.75;5101014;27;65690;-34
2021/08/02 08:38:41;;;;;;;1.45;0.93;;;;;;;31.41;41.84;100453.75;5105806;27;70538;-33
2021/08/02 08:41:13;;;;;;;2.25;1.75;;;;;;;31.40;43.95;100457.53;5108165;27;66301;-33
2021/08/02 08:43:43;;;;;;;1.55;1.45;;;;;;;31.44;44.05;100452.47;5109212;27;69480;-33
2021/08/02 08:46:16;;;;;;;2.63;1.27;;;;;;;31.46;43.48;100459.31;5111119;27;66198;-33
2021/08/02 08:48:48;;;;;;;7.05;1.38;;;;;;;31.47;43.05;100458.22;5112485;27;70287;-32
2021/08/02 08:51:23;;;;;;;1.65;1.25;;;;;;;31.45;42.59;100452.22;5104801;27;65540;-34
2021/08/02 08:53:54;;;;;;;5.38;1.42;;;;;;;31.45;42.50;100454.09;5113061;27;70034;-32
2021/08/02 08:56:24;;;;;;;2.58;1.33;;;;;;;31.44;42.60;100447.84;5109316;27;65458;-33
2021/08/02 08:58:55;;;;;;;1.45;1.27;;;;;;;31.43;42.64;100443.50;5107749;27;70368;-32
2021/08/02 09:01:27;;;;;;;1.92;1.30;;;;;;;31.29;41.79;100423.09;5106767;27;64353;-33
2021/08/02 09:03:59;;;;;;;1.65;1.38;;;;;;;31.43;42.08;100450.81;5109118;27;70048;-33
2021/08/02 09:06:30;;;;;;;;;;;;;;;31.12;42.67;100437.31;5112241;27;65750;-32
2021/08/02 09:09:00;;;;;;;1.88;1.48;;;;;;;31.36;41.90;100440.91;5112528;27;70260;-33
2021/08/02 09:11:30;;;;;;;8.63;1.00;;;;;;;31.37;41.74;100442.56;5110882;27;65652;-32
2021/08/02 09:14:10;;;;;;;10.02;1.30;;;;;;;31.09;41.49;100394.44;5109975;27;69352;-31
2021/08/02 09:16:52;;;;;;;14.15;1.40;;;;;;;31.37;43.23;100436.28;5108318;27;66951;-32
2021/08/02 09:19:23;;;;;;;8.48;1.00;;;;;;;31.47;44.59;100447.38;5115980;27;70188;-33
2021/08/02 09:21:54;;;;;;;3.63;1.75;;;;;;;31.58;47.57;100449.28;5111838;27;65845;-33
2021/08/02 09:24:29;;;;;;;12.55;2.08;;;;;;;31.51;49.54;100405.22;5114524;27;69983;-31
2021/08/02 09:26:59;;;;;;;4.05;3.17;;;;;;;31.89;49.47;100449.16;5109610;27;66137;-33
2021/08/02 09:29:32;;;;;;;3.80;2.88;;;;;;;32.00;51.60;100451.06;5118164;27;69237;-33
2021/08/02 09:32:09;;;;;;;8.52;2.70;;;;;;;32.09;53.47;100443.38;5111791;27;65698;-30
2021/08/02 09:34:48;;;;;;;8.40;3.03;;;;;;;32.18;55.68;100447.34;5108997;27;69793;-33
2021/08/02 09:37:24;;;;;;;7.30;4.30;;;;;;;32.33;54.07;100444.97;5115410;27;66716;-32
2021/08/02 09:40:05;;;;;;;12.10;5.03;;;;;;;32.21;58.43;100428.72;5109845;27;70605;-34
2021/08/02 09:42:35;;;;;;;13.32;5.32;;;;;;;32.39;56.30;100438.56;5112891;27;65407;-33
2021/08/02 09:45:27;;;;;;;11.10;5.97;;;;;;;32.56;56.76;100456.84;5106529;27;69060;-33
2021/08/02 09:47:57;;;;;;;10.18;6.30;;;;;;;32.62;58.11;100445.81;5111824;27;66336;-34
2021/08/02 09:50:29;;;;;;;7.30;6.00;;;;;;;32.67;58.28;100448.63;5114092;27;70029;-35
2021/08/02 09:52:59;;;;;;;8.68;6.47;;;;;;;32.64;59.54;100451.84;5113379;27;65572;-33
2021/08/02 09:55:30;;;;;;;7.55;6.35;;;;;;;32.70;58.58;100455.47;5112218;27;70261;-36
2021/08/02 09:58:01;;;;;;;12.45;6.68;;;;;;;32.72;58.17;100461.50;5095818;27;66337;-34
2021/08/02 10:00:42;;;;;;;8.52;6.72;;;;;;;32.73;58.42;100463.13;5093453;27;69637;-33
2021/08/02 10:03:14;;;;;;;7.88;7.00;;;;;;;32.77;58.17;100467.03;5107178;27;65801;-32
2021/08/02 10:05:49;;;;;;;8.10;6.53;;;;;;;32.83;58.61;100470.66;5114187;27;70093;-33
2021/08/02 10:08:36;;;;;;;6.20;5.65;;;;;;;32.59;59.93;100437.34;5112711;27;65890;-32
2021/08/02 10:11:07;;;;;;;15.15;7.10;;;;;;;32.89;58.50;100480.56;5110626;27;70220;-34
2021/08/02 10:13:44;;;;;;;7.07;6.38;;;;;;;32.96;58.68;100483.09;5112806;27;65369;-33
2021/08/02 10:16:16;;;;;;;14.43;6.88;;;;;;;32.70;58.28;100439.19;5109554;27;69180;-33
2021/08/02 10:18:51;;;;;;;10.68;6.85;;;;;;;32.98;59.76;100478.25;5112624;27;66165;-33
2021/08/02 10:21:21;;;;;;;10.80;7.55;;;;;;;33.01;58.96;100484.06;5114347;27;70405;-34
2021/08/02 10:24:03;;;;;;;11.35;6.97;;;;;;;33.03;58.97;100491.97;5105446;27;66578;-32
2021/08/02 10:26:34;;;;;;;9.15;6.45;;;;;;;33.00;59.68;100489.75;5111673;27;70379;-36
2021/08/02 10:29:07;;;;;;;8.70;6.00;;;;;;;33.04;59.70;100485.47;5115051;27;65208;-33
2021/08/02 10:31:46;;;;;;;7.90;6.32;;;;;;;32.77;59.75;100433.63;5114758;27;70182;-33
2021/08/02 10:34:18;;;;;;;10.38;6.25;;;;;;;32.97;59.06;100471.19;5116193;27;66643;-33
2021/08/02 10:37:06;;;;;;;11.93;5.72;;;;;;;32.88;60.62;100466.16;5110641;27;70169;-35
2021/08/02 10:39:36;;;;;;;7.68;6.03;;;;;;;33.09;59.39;100499.16;5087572;27;65190;-33
2021/08/02 10:42:16;;;;;;;6.30;5.70;;;;;;;33.09;60.05;100496.44;5114986;27;70287;-34
2021/08/02 10:45:00;;;;;;;;;;;;;;;32.82;61.00;100498.88;5111924;27;66533;-33
2021/08/02 10:47:40;;;;;;;7.40;5.85;;;;;;;32.82;60.67;100469.84;5108551;27;69722;-33
2021/08/02 10:50:22;;;;;;;8.40;6.25;;;;;;;32.98;60.60;100513.59;5109303;27;65600;-33
2021/08/02 10:52:54;;;;;;;7.55;5.85;;;;;;;32.89;61.36;100513.16;5115510;27;69946;-34
2021/08/02 10:55:29;;;;;;;13.20;6.57;;;;;;;32.84;62.32;100511.16;5114254;27;65493;-35
2021/08/02 10:58:00;;;;;;;9.15;5.85;;;;;;;32.75;61.73;100504.47;5107055;27;69449;-35
2021/08/02 11:00:30;;;;;;;14.47;6.43;;;;;;;32.77;61.66;100515.94;5111260;27;66093;-35
2021/08/02 11:03:03;;;;;;;9.85;6.28;;;;;;;32.76;61.64;100525.13;5111703;27;70718;-34
2021/08/02 11:05:33;;;;;;;11.77;6.03;;;;;;;32.73;62.12;100520.16;5113110;27;65939;-36
2021/08/02 11:08:07;;;;;;;7.75;6.50;;;;;;;32.75;62.76;100533.53;5114089;27;69070;-33
2021/08/02 11:10:40;;;;;;;9.40;6.20;;;;;;;32.59;62.41;100519.63;5113065;27;66336;-35
2021/08/02 11:13:28;;;;;;;9.40;6.38;;;;;;;32.64;62.65;100543.34;5093935;27;70069;-35
2021/08/02 11:15:59;;;;;;;9.88;6.32;;;;;;;32.60;62.94;100550.34;5079055;27;66098;-35
2021/08/02 11:18:29;;;;;;;11.38;5.60;;;;;;;32.56;61.53;100549.16;5112481;27;70376;-33
2021/08/02 11:20:59;;;;;;;9.63;4.97;;;;;;;32.47;60.09;100549.53;5105244;27;66077;-35
2021/08/02 11:23:32;;;;;;;6.45;3.72;;;;;;;32.05;58.33;100505.44;5092865;27;69185;-33
2021/08/02 11:26:11;;;;;;;6.32;3.85;;;;;;;32.28;56.99;100572.41;5109873;27;65662;-33
2021/08/02 11:28:45;;;;;;;3.03;2.75;;;;;;;32.14;56.28;100571.03;5107832;27;70343;-35
2021/08/02 11:31:16;;;;;;;3.00;2.70;;;;;;;31.95;56.08;100551.31;5110944;27;66019;-40
2021/08/02 11:33:46;;;;;;;4.80;2.30;;;;;;;31.92;55.34;100577.03;5107054;27;69279;-35
2021/08/02 11:36:19;;;;;;;2.05;1.75;;;;;;;31.85;54.23;100579.00;5113458;27;66063;-34
2021/08/02 11:38:50;;;;;;;2.50;2.13;;;;;;;31.76;54.16;100572.25;5112159;27;68867;-33
2021/08/02 11:41:28;;;;;;;2.97;1.90;;;;;;;31.37;53.10;100523.03;5109771;27;66972;-34
2021/08/02 11:43:58;;;;;;;1.80;1.63;;;;;;;31.58;52.45;100574.00;5115287;27;70273;-34
2021/08/02 11:46:29;;;;;;;2.10;1.60;;;;;;;31.56;51.81;100586.94;5108206;27;66355;-30
2021/08/02 11:49:00;;;;;;;2.65;1.30;;;;;;;31.54;51.36;100593.69;5112549;27;70778;-34
2021/08/02 11:51:30;;;;;;;2.63;1.50;;;;;;;31.46;51.44;100589.41;5114155;27;66199;-32
2021/08/02 11:54:00;;;;;;;5.90;1.80;;;;;;;31.41;50.84;100600.13;5114255;27;69999;-32